sensor_id;sensor_type;location;lat;lon;timestamp;P1;durP1;ratioP1;P2;durP2;ratioP2
5923;SDS011;2987;50.884;14.818;2022-07-06T00:00:10;6.97;;;6.37;;
5923;SDS011;2987;50.884;14.818;2022-07-06T00:02:37;10.53;;;7.03;;
5923;SDS011;2987;50.884;14.818;2022-07-06T00:05:03;10.80;;;7.70;;
5923;SDS011;2987;50.884;14.818;2022-07-06T00:07:29;8.30;;;7.43;;
5923;SDS011;2987;50.884;14.818;2022-07-06T00:09:55;9.00;;;7.50;;
5923;SDS011;2987;50.884;14.818;2022-07-06T00:12:23;9.97;;;7.50;;
5923;SDS011;2987;50.884;14.818;2022-07-06T00:14:50;13.10;;;8.53;;
5923;SDS011;2987;50.884;14.818;2022-07-06T00:17:16;16.33;;;9.40;;
5923;SDS011;2987;50.884;14.818;2022-07-06T00:19:44;10.53;;;7.97;;
5923;SDS011;2987;50.884;14.818;2022-07-06T00:22:11;10.93;;;7.63;;
5923;SDS011;2987;50.884;14.818;2022-07-06T00:24:37;12.83;;;8.27;;
5923;SDS011;2987;50.884;14.818;2022-07-06T00:27:03;9.27;;;7.57;;
5923;SDS011;2987;50.884;14.818;2022-07-06T00:29:34;12.90;;;6.27;;
5923;SDS011;2987;50.884;14.818;2022-07-06T00:32:00;7.47;;;5.70;;
5923;SDS011;2987;50.884;14.818;2022-07-06T00:34:27;7.40;;;4.53;;
5923;SDS011;2987;50.884;14.818;2022-07-06T00:36:59;6.60;;;3.67;;
5923;SDS011;2987;50.884;14.818;2022-07-06T00:39:30;6.87;;;3.83;;
5923;SDS011;2987;50.884;14.818;2022-07-06T00:41:56;5.47;;;3.60;;
5923;SDS011;2987;50.884;14.818;2022-07-06T00:44:23;8.70;;;3.13;;
5923;SDS011;2987;50.884;14.818;2022-07-06T00:46:49;8.17;;;3.40;;
5923;SDS011;2987;50.884;14.818;2022-07-06T00:49:16;8.77;;;3.57;;
5923;SDS011;2987;50.884;14.818;2022-07-06T00:52:02;7.10;;;3.13;;
5923;SDS011;2987;50.884;14.818;2022-07-06T00:54:30;8.57;;;2.83;;
5923;SDS011;2987;50.884;14.818;2022-07-06T00:59:49;2.83;;;2.60;;
5923;SDS011;2987;50.884;14.818;2022-07-06T01:02:15;7.17;;;2.90;;
5923;SDS011;2987;50.884;14.818;2022-07-06T01:04:42;4.23;;;2.53;;
5923;SDS011;2987;50.884;14.818;2022-07-06T01:07:08;4.70;;;2.50;;
5923;SDS011;2987;50.884;14.818;2022-07-06T01:09:34;4.37;;;2.90;;
5923;SDS011;2987;50.884;14.818;2022-07-06T01:12:03;2.53;;;2.30;;
5923;SDS011;2987;50.884;14.818;2022-07-06T01:14:31;3.43;;;2.73;;
5923;SDS011;2987;50.884;14.818;2022-07-06T01:16:58;4.33;;;2.33;;
5923;SDS011;2987;50.884;14.818;2022-07-06T01:19:25;3.73;;;2.40;;
5923;SDS011;2987;50.884;14.818;2022-07-06T01:21:51;3.00;;;2.20;;
5923;SDS011;2987;50.884;14.818;2022-07-06T01:24:18;2.60;;;2.40;;
5923;SDS011;2987;50.884;14.818;2022-07-06T01:26:44;4.47;;;2.13;;
5923;SDS011;2987;50.884;14.818;2022-07-06T01:29:10;2.73;;;2.07;;
5923;SDS011;2987;50.884;14.818;2022-07-06T01:31:44;2.90;;;2.20;;
5923;SDS011;2987;50.884;14.818;2022-07-06T01:34:14;4.20;;;2.50;;
5923;SDS011;2987;50.884;14.818;2022-07-06T01:36:42;3.37;;;2.20;;
5923;SDS011;2987;50.884;14.818;2022-07-06T01:39:10;3.63;;;2.20;;
5923;SDS011;2987;50.884;14.818;2022-07-06T01:41:37;3.50;;;2.77;;
5923;SDS011;2987;50.884;14.818;2022-07-06T01:44:04;3.87;;;2.30;;
5923;SDS011;2987;50.884;14.818;2022-07-06T01:46:31;2.73;;;2.47;;
5923;SDS011;2987;50.884;14.818;2022-07-06T01:48:57;4.30;;;2.17;;
5923;SDS011;2987;50.884;14.818;2022-07-06T01:51:25;3.10;;;2.40;;
5923;SDS011;2987;50.884;14.818;2022-07-06T01:53:53;2.70;;;2.27;;
5923;SDS011;2987;50.884;14.818;2022-07-06T01:56:20;2.77;;;2.33;;
5923;SDS011;2987;50.884;14.818;2022-07-06T01:58:52;4.33;;;2.80;;
5923;SDS011;2987;50.884;14.818;2022-07-06T02:01:20;3.97;;;2.60;;
5923;SDS011;2987;50.884;14.818;2022-07-06T02:03:47;3.23;;;2.73;;
5923;SDS011;2987;50.884;14.818;2022-07-06T02:06:13;11.47;;;3.00;;
5923;SDS011;2987;50.884;14.818;2022-07-06T02:08:40;3.20;;;2.80;;
5923;SDS011;2987;50.884;14.818;2022-07-06T02:11:08;3.93;;;2.80;;
5923;SDS011;2987;50.884;14.818;2022-07-06T02:13:38;4.23;;;2.90;;
5923;SDS011;2987;50.884;14.818;2022-07-06T02:16:09;5.70;;;2.97;;
5923;SDS011;2987;50.884;14.818;2022-07-06T02:18:36;3.27;;;3.07;;
5923;SDS011;2987;50.884;14.818;2022-07-06T02:21:08;4.33;;;3.10;;
5923;SDS011;2987;50.884;14.818;2022-07-06T02:23:35;3.53;;;2.93;;
5923;SDS011;2987;50.884;14.818;2022-07-06T02:26:02;3.30;;;2.90;;
5923;SDS011;2987;50.884;14.818;2022-07-06T02:28:29;4.27;;;3.07;;
5923;SDS011;2987;50.884;14.818;2022-07-06T02:30:57;3.30;;;3.10;;
5923;SDS011;2987;50.884;14.818;2022-07-06T02:33:26;3.23;;;2.77;;
5923;SDS011;2987;50.884;14.818;2022-07-06T02:35:53;4.00;;;3.10;;
5923;SDS011;2987;50.884;14.818;2022-07-06T02:38:20;3.53;;;3.23;;
5923;SDS011;2987;50.884;14.818;2022-07-06T02:40:47;3.47;;;3.13;;
5923;SDS011;2987;50.884;14.818;2022-07-06T02:43:14;3.13;;;2.93;;
5923;SDS011;2987;50.884;14.818;2022-07-06T02:45:41;3.37;;;3.10;;
5923;SDS011;2987;50.884;14.818;2022-07-06T02:48:09;5.57;;;3.17;;
5923;SDS011;2987;50.884;14.818;2022-07-06T02:50:35;3.10;;;2.90;;
5923;SDS011;2987;50.884;14.818;2022-07-06T02:53:01;4.83;;;3.00;;
5923;SDS011;2987;50.884;14.818;2022-07-06T02:55:28;3.83;;;3.00;;
5923;SDS011;2987;50.884;14.818;2022-07-06T02:57:55;5.10;;;3.30;;
5923;SDS011;2987;50.884;14.818;2022-07-06T03:00:23;3.70;;;2.50;;
5923;SDS011;2987;50.884;14.818;2022-07-06T03:02:50;3.60;;;3.10;;
5923;SDS011;2987;50.884;14.818;2022-07-06T03:05:19;4.60;;;2.80;;
5923;SDS011;2987;50.884;14.818;2022-07-06T03:07:45;3.60;;;3.27;;
5923;SDS011;2987;50.884;14.818;2022-07-06T03:10:13;3.70;;;2.90;;
5923;SDS011;2987;50.884;14.818;2022-07-06T03:12:39;3.47;;;3.03;;
5923;SDS011;2987;50.884;14.818;2022-07-06T03:15:06;10.53;;;3.57;;
5923;SDS011;2987;50.884;14.818;2022-07-06T03:17:37;3.20;;;3.00;;
5923;SDS011;2987;50.884;14.818;2022-07-06T03:20:04;3.43;;;2.93;;
5923;SDS011;2987;50.884;14.818;2022-07-06T03:22:32;4.53;;;3.30;;
5923;SDS011;2987;50.884;14.818;2022-07-06T03:24:59;3.40;;;3.10;;
5923;SDS011;2987;50.884;14.818;2022-07-06T03:27:26;2.90;;;2.70;;
5923;SDS011;2987;50.884;14.818;2022-07-06T03:29:52;7.00;;;3.00;;
5923;SDS011;2987;50.884;14.818;2022-07-06T03:32:19;3.27;;;2.97;;
5923;SDS011;2987;50.884;14.818;2022-07-06T03:34:46;3.00;;;2.77;;
5923;SDS011;2987;50.884;14.818;2022-07-06T03:37:13;3.07;;;2.50;;
5923;SDS011;2987;50.884;14.818;2022-07-06T03:39:40;4.07;;;2.97;;
5923;SDS011;2987;50.884;14.818;2022-07-06T03:42:08;2.93;;;2.73;;
5923;SDS011;2987;50.884;14.818;2022-07-06T03:44:36;4.93;;;2.90;;
5923;SDS011;2987;50.884;14.818;2022-07-06T03:47:03;4.97;;;3.40;;
5923;SDS011;2987;50.884;14.818;2022-07-06T03:49:29;3.40;;;3.10;;
5923;SDS011;2987;50.884;14.818;2022-07-06T03:51:58;5.03;;;3.80;;
5923;SDS011;2987;50.884;14.818;2022-07-06T03:54:25;3.87;;;3.03;;
5923;SDS011;2987;50.884;14.818;2022-07-06T03:56:56;3.77;;;3.47;;
5923;SDS011;2987;50.884;14.818;2022-07-06T03:59:22;3.50;;;2.97;;
5923;SDS011;2987;50.884;14.818;2022-07-06T04:01:48;5.37;;;3.70;;
5923;SDS011;2987;50.884;14.818;2022-07-06T04:04:17;3.30;;;3.10;;
5923;SDS011;2987;50.884;14.818;2022-07-06T04:06:46;3.33;;;3.03;;
5923;SDS011;2987;50.884;14.818;2022-07-06T04:09:13;3.67;;;3.00;;
5923;SDS011;2987;50.884;14.818;2022-07-06T04:11:40;4.37;;;2.80;;
5923;SDS011;2987;50.884;14.818;2022-07-06T04:14:07;4.13;;;3.10;;
5923;SDS011;2987;50.884;14.818;2022-07-06T04:16:33;4.60;;;3.20;;
5923;SDS011;2987;50.884;14.818;2022-07-06T04:19:00;3.20;;;2.90;;
5923;SDS011;2987;50.884;14.818;2022-07-06T04:21:27;2.43;;;2.33;;
5923;SDS011;2987;50.884;14.818;2022-07-06T04:23:53;3.87;;;2.50;;
5923;SDS011;2987;50.884;14.818;2022-07-06T04:26:19;2.80;;;2.53;;
5923;SDS011;2987;50.884;14.818;2022-07-06T04:28:46;3.00;;;2.70;;
5923;SDS011;2987;50.884;14.818;2022-07-06T04:31:12;2.87;;;2.57;;
5923;SDS011;2987;50.884;14.818;2022-07-06T04:33:42;2.50;;;2.30;;
5923;SDS011;2987;50.884;14.818;2022-07-06T04:36:09;4.10;;;2.50;;
5923;SDS011;2987;50.884;14.818;2022-07-06T04:38:40;2.50;;;2.30;;
5923;SDS011;2987;50.884;14.818;2022-07-06T04:41:14;2.80;;;2.60;;
5923;SDS011;2987;50.884;14.818;2022-07-06T04:43:41;4.00;;;2.70;;
5923;SDS011;2987;50.884;14.818;2022-07-06T04:46:12;5.63;;;2.70;;
5923;SDS011;2987;50.884;14.818;2022-07-06T04:48:41;5.10;;;2.30;;
5923;SDS011;2987;50.884;14.818;2022-07-06T04:51:12;3.80;;;2.13;;
5923;SDS011;2987;50.884;14.818;2022-07-06T04:53:39;2.67;;;2.30;;
5923;SDS011;2987;50.884;14.818;2022-07-06T04:56:05;3.27;;;2.40;;
5923;SDS011;2987;50.884;14.818;2022-07-06T04:58:35;2.60;;;2.40;;
5923;SDS011;2987;50.884;14.818;2022-07-06T05:01:02;3.53;;;2.87;;
5923;SDS011;2987;50.884;14.818;2022-07-06T05:03:28;6.37;;;2.70;;
5923;SDS011;2987;50.884;14.818;2022-07-06T05:05:55;2.87;;;2.70;;
5923;SDS011;2987;50.884;14.818;2022-07-06T05:08:22;2.70;;;2.50;;
5923;SDS011;2987;50.884;14.818;2022-07-06T05:10:51;4.37;;;2.40;;
5923;SDS011;2987;50.884;14.818;2022-07-06T05:13:19;3.67;;;2.10;;
5923;SDS011;2987;50.884;14.818;2022-07-06T05:15:45;1.97;;;1.77;;
5923;SDS011;2987;50.884;14.818;2022-07-06T05:18:12;2.10;;;2.00;;
5923;SDS011;2987;50.884;14.818;2022-07-06T05:20:40;4.27;;;2.40;;
5923;SDS011;2987;50.884;14.818;2022-07-06T05:23:07;3.47;;;2.07;;
5923;SDS011;2987;50.884;14.818;2022-07-06T05:25:33;2.37;;;2.17;;
5923;SDS011;2987;50.884;14.818;2022-07-06T05:28:00;2.87;;;2.50;;
5923;SDS011;2987;50.884;14.818;2022-07-06T05:30:28;2.53;;;2.30;;
5923;SDS011;2987;50.884;14.818;2022-07-06T05:32:54;2.83;;;2.57;;
5923;SDS011;2987;50.884;14.818;2022-07-06T05:35:21;2.20;;;2.00;;
5923;SDS011;2987;50.884;14.818;2022-07-06T05:37:47;2.20;;;2.10;;
5923;SDS011;2987;50.884;14.818;2022-07-06T05:40:18;2.40;;;2.20;;
5923;SDS011;2987;50.884;14.818;2022-07-06T05:42:45;3.93;;;2.27;;
5923;SDS011;2987;50.884;14.818;2022-07-06T05:45:11;4.07;;;2.50;;
5923;SDS011;2987;50.884;14.818;2022-07-06T05:47:38;2.57;;;2.27;;
5923;SDS011;2987;50.884;14.818;2022-07-06T05:50:25;2.90;;;2.40;;
5923;SDS011;2987;50.884;14.818;2022-07-06T05:52:56;2.20;;;2.00;;
5923;SDS011;2987;50.884;14.818;2022-07-06T05:55:27;4.83;;;2.07;;
5923;SDS011;2987;50.884;14.818;2022-07-06T05:57:55;3.97;;;2.20;;
5923;SDS011;2987;50.884;14.818;2022-07-06T06:00:24;2.47;;;2.27;;
5923;SDS011;2987;50.884;14.818;2022-07-06T06:03:04;2.20;;;2.10;;
5923;SDS011;2987;50.884;14.818;2022-07-06T06:05:30;3.27;;;2.07;;
5923;SDS011;2987;50.884;14.818;2022-07-06T06:08:02;3.53;;;2.30;;
5923;SDS011;2987;50.884;14.818;2022-07-06T06:10:29;2.30;;;2.10;;
5923;SDS011;2987;50.884;14.818;2022-07-06T06:12:59;3.17;;;2.27;;
5923;SDS011;2987;50.884;14.818;2022-07-06T06:15:26;2.50;;;2.10;;
5923;SDS011;2987;50.884;14.818;2022-07-06T06:17:52;2.93;;;2.10;;
5923;SDS011;2987;50.884;14.818;2022-07-06T06:20:19;2.20;;;2.00;;
5923;SDS011;2987;50.884;14.818;2022-07-06T06:25:28;3.83;;;1.97;;
5923;SDS011;2987;50.884;14.818;2022-07-06T06:27:58;2.30;;;1.80;;
5923;SDS011;2987;50.884;14.818;2022-07-06T06:30:25;1.77;;;1.67;;
5923;SDS011;2987;50.884;14.818;2022-07-06T06:32:52;3.57;;;1.70;;
5923;SDS011;2987;50.884;14.818;2022-07-06T06:35:45;2.57;;;1.63;;
5923;SDS011;2987;50.884;14.818;2022-07-06T06:38:14;2.50;;;1.73;;
5923;SDS011;2987;50.884;14.818;2022-07-06T06:40:41;3.53;;;1.50;;
5923;SDS011;2987;50.884;14.818;2022-07-06T06:43:08;1.67;;;1.50;;
5923;SDS011;2987;50.884;14.818;2022-07-06T06:45:42;1.80;;;1.70;;
5923;SDS011;2987;50.884;14.818;2022-07-06T06:48:10;2.63;;;1.63;;
5923;SDS011;2987;50.884;14.818;2022-07-06T06:50:36;1.43;;;1.30;;
5923;SDS011;2987;50.884;14.818;2022-07-06T06:53:02;6.23;;;1.50;;
5923;SDS011;2987;50.884;14.818;2022-07-06T06:55:28;1.47;;;1.37;;
5923;SDS011;2987;50.884;14.818;2022-07-06T06:57:54;3.40;;;1.50;;
5923;SDS011;2987;50.884;14.818;2022-07-06T07:00:20;5.53;;;1.43;;
5923;SDS011;2987;50.884;14.818;2022-07-06T07:02:46;2.07;;;1.50;;
5923;SDS011;2987;50.884;14.818;2022-07-06T07:05:12;1.63;;;1.47;;
5923;SDS011;2987;50.884;14.818;2022-07-06T07:07:38;1.70;;;1.60;;
5923;SDS011;2987;50.884;14.818;2022-07-06T07:10:05;3.10;;;1.40;;
5923;SDS011;2987;50.884;14.818;2022-07-06T07:12:41;2.83;;;1.50;;
5923;SDS011;2987;50.884;14.818;2022-07-06T07:15:09;3.07;;;1.50;;
5923;SDS011;2987;50.884;14.818;2022-07-06T07:17:36;3.23;;;1.53;;
5923;SDS011;2987;50.884;14.818;2022-07-06T07:20:02;1.50;;;1.40;;
5923;SDS011;2987;50.884;14.818;2022-07-06T07:22:29;2.90;;;1.50;;
5923;SDS011;2987;50.884;14.818;2022-07-06T07:24:55;1.50;;;1.40;;
5923;SDS011;2987;50.884;14.818;2022-07-06T07:27:21;2.07;;;1.83;;
5923;SDS011;2987;50.884;14.818;2022-07-06T07:29:47;2.23;;;2.00;;
5923;SDS011;2987;50.884;14.818;2022-07-06T07:32:13;1.93;;;1.53;;
5923;SDS011;2987;50.884;14.818;2022-07-06T07:34:39;2.87;;;2.07;;
5923;SDS011;2987;50.884;14.818;2022-07-06T07:37:06;3.13;;;1.60;;
5923;SDS011;2987;50.884;14.818;2022-07-06T07:39:32;2.73;;;1.63;;
5923;SDS011;2987;50.884;14.818;2022-07-06T07:41:58;3.43;;;1.80;;
5923;SDS011;2987;50.884;14.818;2022-07-06T07:44:24;3.23;;;1.60;;
5923;SDS011;2987;50.884;14.818;2022-07-06T07:46:52;2.87;;;1.70;;
5923;SDS011;2987;50.884;14.818;2022-07-06T07:49:19;5.17;;;1.90;;
5923;SDS011;2987;50.884;14.818;2022-07-06T07:51:47;5.23;;;1.80;;
5923;SDS011;2987;50.884;14.818;2022-07-06T07:54:15;4.63;;;1.90;;
5923;SDS011;2987;50.884;14.818;2022-07-06T07:56:41;3.43;;;1.80;;
5923;SDS011;2987;50.884;14.818;2022-07-06T07:59:08;3.83;;;2.00;;
5923;SDS011;2987;50.884;14.818;2022-07-06T08:01:36;3.27;;;1.70;;
5923;SDS011;2987;50.884;14.818;2022-07-06T08:04:03;3.37;;;1.73;;
5923;SDS011;2987;50.884;14.818;2022-07-06T08:06:29;8.97;;;2.13;;
5923;SDS011;2987;50.884;14.818;2022-07-06T08:08:59;3.20;;;2.03;;
5923;SDS011;2987;50.884;14.818;2022-07-06T08:11:25;4.37;;;2.13;;
5923;SDS011;2987;50.884;14.818;2022-07-06T08:13:52;3.80;;;2.00;;
5923;SDS011;2987;50.884;14.818;2022-07-06T08:16:18;5.97;;;1.90;;
5923;SDS011;2987;50.884;14.818;2022-07-06T08:18:44;4.50;;;1.90;;
5923;SDS011;2987;50.884;14.818;2022-07-06T08:21:10;8.00;;;2.00;;
5923;SDS011;2987;50.884;14.818;2022-07-06T08:23:36;7.33;;;2.20;;
5923;SDS011;2987;50.884;14.818;2022-07-06T08:26:11;4.43;;;2.00;;
5923;SDS011;2987;50.884;14.818;2022-07-06T08:28:37;3.90;;;2.30;;
5923;SDS011;2987;50.884;14.818;2022-07-06T08:31:03;6.83;;;2.03;;
5923;SDS011;2987;50.884;14.818;2022-07-06T08:33:29;2.53;;;1.97;;
5923;SDS011;2987;50.884;14.818;2022-07-06T08:35:56;3.60;;;1.97;;
5923;SDS011;2987;50.884;14.818;2022-07-06T08:38:22;4.37;;;2.57;;
5923;SDS011;2987;50.884;14.818;2022-07-06T08:40:49;4.73;;;2.20;;
5923;SDS011;2987;50.884;14.818;2022-07-06T08:43:16;4.67;;;2.20;;
5923;SDS011;2987;50.884;14.818;2022-07-06T08:45:43;6.37;;;2.37;;
5923;SDS011;2987;50.884;14.818;2022-07-06T08:48:12;4.20;;;2.53;;
5923;SDS011;2987;50.884;14.818;2022-07-06T08:50:38;4.37;;;2.50;;
5923;SDS011;2987;50.884;14.818;2022-07-06T08:53:05;5.87;;;2.20;;
5923;SDS011;2987;50.884;14.818;2022-07-06T08:55:31;2.87;;;2.10;;
5923;SDS011;2987;50.884;14.818;2022-07-06T08:57:59;4.00;;;2.30;;
5923;SDS011;2987;50.884;14.818;2022-07-06T09:00:25;3.40;;;2.37;;
5923;SDS011;2987;50.884;14.818;2022-07-06T09:02:51;5.10;;;2.27;;
5923;SDS011;2987;50.884;14.818;2022-07-06T09:05:23;2.70;;;2.33;;
5923;SDS011;2987;50.884;14.818;2022-07-06T09:07:50;5.50;;;2.00;;
5923;SDS011;2987;50.884;14.818;2022-07-06T09:10:18;5.07;;;1.80;;
5923;SDS011;2987;50.884;14.818;2022-07-06T09:12:47;3.43;;;1.83;;
5923;SDS011;2987;50.884;14.818;2022-07-06T09:15:14;4.13;;;1.70;;
5923;SDS011;2987;50.884;14.818;2022-07-06T09:17:41;4.47;;;1.80;;
5923;SDS011;2987;50.884;14.818;2022-07-06T09:20:09;4.57;;;1.63;;
5923;SDS011;2987;50.884;14.818;2022-07-06T09:22:37;5.63;;;1.80;;
5923;SDS011;2987;50.884;14.818;2022-07-06T09:27:31;2.43;;;1.37;;
5923;SDS011;2987;50.884;14.818;2022-07-06T09:30:02;3.50;;;1.80;;
5923;SDS011;2987;50.884;14.818;2022-07-06T09:32:29;3.83;;;1.50;;
5923;SDS011;2987;50.884;14.818;2022-07-06T09:35:03;3.00;;;1.70;;
5923;SDS011;2987;50.884;14.818;2022-07-06T09:37:29;5.77;;;1.60;;
5923;SDS011;2987;50.884;14.818;2022-07-06T09:39:55;4.70;;;1.60;;
5923;SDS011;2987;50.884;14.818;2022-07-06T09:42:25;5.07;;;1.60;;
5923;SDS011;2987;50.884;14.818;2022-07-06T09:44:52;3.43;;;1.60;;
5923;SDS011;2987;50.884;14.818;2022-07-06T09:47:19;3.97;;;1.60;;
5923;SDS011;2987;50.884;14.818;2022-07-06T09:49:46;7.63;;;1.83;;
5923;SDS011;2987;50.884;14.818;2022-07-06T09:52:13;2.87;;;1.60;;
5923;SDS011;2987;50.884;14.818;2022-07-06T09:54:40;3.47;;;1.30;;
5923;SDS011;2987;50.884;14.818;2022-07-06T09:57:06;4.77;;;1.40;;
5923;SDS011;2987;50.884;14.818;2022-07-06T09:59:33;2.30;;;1.40;;
5923;SDS011;2987;50.884;14.818;2022-07-06T10:02:02;4.80;;;1.20;;
5923;SDS011;2987;50.884;14.818;2022-07-06T10:04:30;2.23;;;1.37;;
5923;SDS011;2987;50.884;14.818;2022-07-06T10:06:57;2.63;;;1.20;;
5923;SDS011;2987;50.884;14.818;2022-07-06T10:09:25;4.07;;;1.53;;
5923;SDS011;2987;50.884;14.818;2022-07-06T10:11:56;4.67;;;1.60;;
5923;SDS011;2987;50.884;14.818;2022-07-06T10:14:26;3.50;;;1.40;;
5923;SDS011;2987;50.884;14.818;2022-07-06T10:16:55;2.50;;;1.43;;
5923;SDS011;2987;50.884;14.818;2022-07-06T10:19:23;2.73;;;1.70;;
5923;SDS011;2987;50.884;14.818;2022-07-06T10:21:50;3.13;;;1.37;;
5923;SDS011;2987;50.884;14.818;2022-07-06T10:24:17;5.37;;;1.87;;
5923;SDS011;2987;50.884;14.818;2022-07-06T10:26:45;2.37;;;1.60;;
5923;SDS011;2987;50.884;14.818;2022-07-06T10:29:13;6.10;;;1.63;;
5923;SDS011;2987;50.884;14.818;2022-07-06T10:31:40;2.53;;;1.50;;
5923;SDS011;2987;50.884;14.818;2022-07-06T10:34:10;4.53;;;1.70;;
5923;SDS011;2987;50.884;14.818;2022-07-06T10:36:40;2.83;;;1.40;;
5923;SDS011;2987;50.884;14.818;2022-07-06T10:39:08;3.97;;;1.83;;
5923;SDS011;2987;50.884;14.818;2022-07-06T10:42:01;5.83;;;1.70;;
5923;SDS011;2987;50.884;14.818;2022-07-06T10:44:29;3.80;;;1.30;;
5923;SDS011;2987;50.884;14.818;2022-07-06T10:46:57;4.47;;;1.90;;
5923;SDS011;2987;50.884;14.818;2022-07-06T10:49:25;3.53;;;1.67;;
5923;SDS011;2987;50.884;14.818;2022-07-06T10:51:53;2.80;;;1.40;;
5923;SDS011;2987;50.884;14.818;2022-07-06T10:54:22;3.97;;;2.10;;
5923;SDS011;2987;50.884;14.818;2022-07-06T10:56:50;6.27;;;1.87;;
5923;SDS011;2987;50.884;14.818;2022-07-06T10:59:17;2.87;;;1.80;;
5923;SDS011;2987;50.884;14.818;2022-07-06T11:07:10;4.77;;;2.20;;
5923;SDS011;2987;50.884;14.818;2022-07-06T11:09:38;4.50;;;2.47;;
5923;SDS011;2987;50.884;14.818;2022-07-06T11:12:23;5.10;;;2.40;;
5923;SDS011;2987;50.884;14.818;2022-07-06T11:14:50;3.13;;;2.20;;
5923;SDS011;2987;50.884;14.818;2022-07-06T11:20:09;3.43;;;2.17;;
5923;SDS011;2987;50.884;14.818;2022-07-06T11:22:35;3.10;;;2.47;;
5923;SDS011;2987;50.884;14.818;2022-07-06T11:25:03;4.73;;;2.40;;
5923;SDS011;2987;50.884;14.818;2022-07-06T11:27:30;3.27;;;2.00;;
5923;SDS011;2987;50.884;14.818;2022-07-06T11:29:58;3.07;;;2.20;;
5923;SDS011;2987;50.884;14.818;2022-07-06T11:32:24;3.07;;;2.17;;
5923;SDS011;2987;50.884;14.818;2022-07-06T11:34:51;4.50;;;1.70;;
5923;SDS011;2987;50.884;14.818;2022-07-06T11:37:18;3.60;;;1.50;;
5923;SDS011;2987;50.884;14.818;2022-07-06T11:39:46;3.53;;;1.67;;
5923;SDS011;2987;50.884;14.818;2022-07-06T11:42:20;2.77;;;1.43;;
5923;SDS011;2987;50.884;14.818;2022-07-06T11:44:47;4.07;;;1.60;;
5923;SDS011;2987;50.884;14.818;2022-07-06T11:47:15;4.80;;;1.40;;
5923;SDS011;2987;50.884;14.818;2022-07-06T11:49:42;4.87;;;1.33;;
5923;SDS011;2987;50.884;14.818;2022-07-06T11:52:11;4.13;;;1.20;;
5923;SDS011;2987;50.884;14.818;2022-07-06T11:54:40;1.00;;;0.90;;
5923;SDS011;2987;50.884;14.818;2022-07-06T11:57:07;1.70;;;1.10;;
5923;SDS011;2987;50.884;14.818;2022-07-06T11:59:36;3.57;;;1.13;;
5923;SDS011;2987;50.884;14.818;2022-07-06T12:02:06;4.10;;;2.13;;
5923;SDS011;2987;50.884;14.818;2022-07-06T12:04:36;6.00;;;1.50;;
5923;SDS011;2987;50.884;14.818;2022-07-06T12:07:05;2.10;;;1.20;;
5923;SDS011;2987;50.884;14.818;2022-07-06T12:09:34;4.33;;;1.40;;
5923;SDS011;2987;50.884;14.818;2022-07-06T12:12:02;4.03;;;1.30;;
5923;SDS011;2987;50.884;14.818;2022-07-06T12:14:30;2.50;;;1.03;;
5923;SDS011;2987;50.884;14.818;2022-07-06T12:17:07;2.43;;;1.10;;
5923;SDS011;2987;50.884;14.818;2022-07-06T12:19:37;2.77;;;1.07;;
5923;SDS011;2987;50.884;14.818;2022-07-06T12:22:04;2.10;;;1.10;;
5923;SDS011;2987;50.884;14.818;2022-07-06T12:24:31;5.40;;;4.30;;
5923;SDS011;2987;50.884;14.818;2022-07-06T12:29:47;2.63;;;1.07;;
5923;SDS011;2987;50.884;14.818;2022-07-06T12:32:17;2.40;;;1.30;;
5923;SDS011;2987;50.884;14.818;2022-07-06T12:39:59;2.53;;;1.33;;
5923;SDS011;2987;50.884;14.818;2022-07-06T12:42:26;12.93;;;1.57;;
5923;SDS011;2987;50.884;14.818;2022-07-06T12:44:53;1.20;;;0.93;;
5923;SDS011;2987;50.884;14.818;2022-07-06T12:47:20;2.33;;;1.27;;
5923;SDS011;2987;50.884;14.818;2022-07-06T12:49:52;1.73;;;1.00;;
5923;SDS011;2987;50.884;14.818;2022-07-06T12:52:31;2.53;;;1.10;;
5923;SDS011;2987;50.884;14.818;2022-07-06T12:54:59;4.73;;;1.13;;
5923;SDS011;2987;50.884;14.818;2022-07-06T12:57:27;2.53;;;1.00;;
5923;SDS011;2987;50.884;14.818;2022-07-06T13:00:07;2.30;;;1.00;;
5923;SDS011;2987;50.884;14.818;2022-07-06T13:02:35;1.27;;;1.10;;
5923;SDS011;2987;50.884;14.818;2022-07-06T13:05:04;4.53;;;1.20;;
5923;SDS011;2987;50.884;14.818;2022-07-06T13:07:33;2.13;;;0.93;;
5923;SDS011;2987;50.884;14.818;2022-07-06T13:10:02;2.83;;;1.27;;
5923;SDS011;2987;50.884;14.818;2022-07-06T13:12:30;6.00;;;1.27;;
5923;SDS011;2987;50.884;14.818;2022-07-06T13:14:57;2.53;;;1.30;;
5923;SDS011;2987;50.884;14.818;2022-07-06T13:17:23;2.67;;;0.87;;
5923;SDS011;2987;50.884;14.818;2022-07-06T13:19:50;3.27;;;1.20;;
5923;SDS011;2987;50.884;14.818;2022-07-06T13:22:16;2.83;;;0.93;;
5923;SDS011;2987;50.884;14.818;2022-07-06T13:24:42;3.60;;;1.23;;
5923;SDS011;2987;50.884;14.818;2022-07-06T13:27:09;4.13;;;1.10;;
5923;SDS011;2987;50.884;14.818;2022-07-06T13:29:37;1.97;;;1.20;;
5923;SDS011;2987;50.884;14.818;2022-07-06T13:32:03;3.23;;;1.10;;
5923;SDS011;2987;50.884;14.818;2022-07-06T13:34:30;3.97;;;1.30;;
5923;SDS011;2987;50.884;14.818;2022-07-06T13:36:57;2.27;;;1.03;;
5923;SDS011;2987;50.884;14.818;2022-07-06T13:39:23;3.00;;;1.10;;
5923;SDS011;2987;50.884;14.818;2022-07-06T13:41:49;4.03;;;1.07;;
5923;SDS011;2987;50.884;14.818;2022-07-06T13:44:16;1.53;;;0.80;;
5923;SDS011;2987;50.884;14.818;2022-07-06T13:46:42;3.30;;;0.90;;
5923;SDS011;2987;50.884;14.818;2022-07-06T13:49:09;5.60;;;1.00;;
5923;SDS011;2987;50.884;14.818;2022-07-06T13:51:35;1.10;;;0.97;;
5923;SDS011;2987;50.884;14.818;2022-07-06T13:54:01;6.50;;;1.60;;
5923;SDS011;2987;50.884;14.818;2022-07-06T13:56:28;3.00;;;1.50;;
5923;SDS011;2987;50.884;14.818;2022-07-06T13:58:54;4.77;;;1.10;;
5923;SDS011;2987;50.884;14.818;2022-07-06T14:01:23;3.60;;;1.13;;
5923;SDS011;2987;50.884;14.818;2022-07-06T14:03:49;4.20;;;1.00;;
5923;SDS011;2987;50.884;14.818;2022-07-06T14:06:16;3.40;;;0.90;;
5923;SDS011;2987;50.884;14.818;2022-07-06T14:08:42;6.37;;;1.10;;
5923;SDS011;2987;50.884;14.818;2022-07-06T14:11:09;3.47;;;1.00;;
5923;SDS011;2987;50.884;14.818;2022-07-06T14:13:36;3.07;;;1.10;;
5923;SDS011;2987;50.884;14.818;2022-07-06T14:16:03;1.80;;;0.97;;
5923;SDS011;2987;50.884;14.818;2022-07-06T14:18:31;1.73;;;0.80;;
5923;SDS011;2987;50.884;14.818;2022-07-06T14:20:58;5.23;;;1.10;;
5923;SDS011;2987;50.884;14.818;2022-07-06T14:23:26;1.07;;;0.80;;
5923;SDS011;2987;50.884;14.818;2022-07-06T14:25:54;2.73;;;0.80;;
5923;SDS011;2987;50.884;14.818;2022-07-06T14:28:21;2.63;;;0.80;;
5923;SDS011;2987;50.884;14.818;2022-07-06T14:30:48;3.83;;;1.00;;
5923;SDS011;2987;50.884;14.818;2022-07-06T14:33:14;2.93;;;0.97;;
5923;SDS011;2987;50.884;14.818;2022-07-06T14:35:44;2.40;;;1.00;;
5923;SDS011;2987;50.884;14.818;2022-07-06T14:38:13;3.80;;;1.07;;
5923;SDS011;2987;50.884;14.818;2022-07-06T14:40:41;1.93;;;1.00;;
5923;SDS011;2987;50.884;14.818;2022-07-06T14:43:08;3.60;;;1.03;;
5923;SDS011;2987;50.884;14.818;2022-07-06T14:45:35;4.97;;;1.00;;
5923;SDS011;2987;50.884;14.818;2022-07-06T14:48:02;3.03;;;0.90;;
5923;SDS011;2987;50.884;14.818;2022-07-06T14:50:30;5.67;;;1.20;;
5923;SDS011;2987;50.884;14.818;2022-07-06T14:52:57;4.70;;;1.10;;
5923;SDS011;2987;50.884;14.818;2022-07-06T14:55:23;2.30;;;0.90;;
5923;SDS011;2987;50.884;14.818;2022-07-06T14:57:49;3.73;;;0.90;;
5923;SDS011;2987;50.884;14.818;2022-07-06T15:00:16;2.27;;;0.93;;
5923;SDS011;2987;50.884;14.818;2022-07-06T15:02:43;4.10;;;1.00;;
5923;SDS011;2987;50.884;14.818;2022-07-06T15:05:09;3.10;;;0.80;;
5923;SDS011;2987;50.884;14.818;2022-07-06T15:07:36;2.13;;;0.87;;
5923;SDS011;2987;50.884;14.818;2022-07-06T15:10:03;3.40;;;1.23;;
5923;SDS011;2987;50.884;14.818;2022-07-06T15:12:31;4.07;;;1.00;;
5923;SDS011;2987;50.884;14.818;2022-07-06T15:14:57;6.77;;;0.90;;
5923;SDS011;2987;50.884;14.818;2022-07-06T15:17:23;1.93;;;0.80;;
5923;SDS011;2987;50.884;14.818;2022-07-06T15:19:50;3.53;;;0.83;;
5923;SDS011;2987;50.884;14.818;2022-07-06T15:22:16;3.07;;;1.17;;
5923;SDS011;2987;50.884;14.818;2022-07-06T15:24:42;3.80;;;1.00;;
5923;SDS011;2987;50.884;14.818;2022-07-06T15:27:08;5.50;;;1.23;;